Time;durP1;ratioP1;P1;durP2;ratioP2;P2;SDS_P1;SDS_P2;PMS_P1;PMS_P2;Temp;Humidity;BMP_temperature;BMP_pressure;BME280_temperature;BME280_humidity;BME280_pressure;Samples;Min_cycle;Max_cycle;Signal;HPM_P1;HPM_P2
2022/06/27 00:02:24;;;;;;;0.68;0.60;;;;;;;34.94;22.16;98212.53;5073413;28;20388;-76
2022/06/27 00:04:51;;;;;;;1.27;0.90;;;;;;;34.51;22.88;98220.91;5072504;28;20086;-75
2022/06/27 00:07:18;;;;;;;0.65;0.65;;;;;;;34.20;23.28;98217.94;5088166;28;20021;-76
2022/06/27 00:09:44;;;;;;;0.88;0.50;;;;;;;33.95;23.24;98221.50;5075743;28;20098;-76
2022/06/27 00:12:11;;;;;;;1.70;0.70;;;;;;;33.89;23.87;98220.63;5076267;28;20039;-76
2022/06/27 00:14:37;;;;;;;0.60;0.60;;;;;;;34.05;23.49;98218.03;5091523;28;20137;-76
2022/06/27 00:17:04;;;;;;;0.85;0.55;;;;;;;33.88;23.54;98221.94;5077323;28;20033;-76
2022/06/27 00:19:31;;;;;;;0.70;0.70;;;;;;;34.00;23.04;98217.94;5096063;28;20036;-76
2022/06/27 00:21:57;;;;;;;0.30;0.30;;;;;;;33.91;23.47;98227.41;5096498;28;20035;-75
2022/06/27 00:24:23;;;;;;;1.70;0.70;;;;;;;33.87;23.55;98218.28;5096202;28;20040;-76
2022/06/27 00:26:49;;;;;;;1.15;0.52;;;;;;;34.09;23.75;98223.53;5096428;28;20042;-76
2022/06/27 00:29:15;;;;;;;2.13;0.82;;;;;;;33.77;24.05;98218.94;5080486;28;20037;-76
2022/06/27 00:31:42;;;;;;;1.45;0.80;;;;;;;33.64;23.77;98222.13;5075653;28;20574;-76
2022/06/27 00:34:08;;;;;;;2.08;0.70;;;;;;;33.86;23.64;98225.28;5076634;28;20028;-75
2022/06/27 00:36:34;;;;;;;0.60;0.60;;;;;;;34.03;24.05;98216.94;5075787;28;20075;-76
2022/06/27 00:39:00;;;;;;;1.08;0.73;;;;;;;34.06;23.49;98222.44;5075660;28;20025;-76
2022/06/27 00:41:26;;;;;;;0.55;0.55;;;;;;;34.18;23.55;98226.22;5075966;28;20385;-75
2022/06/27 00:43:52;;;;;;;0.85;0.50;;;;;;;33.99;23.31;98228.56;5075328;28;20369;-75
2022/06/27 00:46:18;;;;;;;0.93;0.70;;;;;;;33.83;23.59;98231.19;5075855;28;20441;-76
2022/06/27 00:48:44;;;;;;;1.95;0.57;;;;;;;33.65;23.76;98235.09;5076032;28;20028;-75
2022/06/27 00:51:11;;;;;;;2.05;0.90;;;;;;;33.74;23.51;98226.41;5076845;28;20125;-76
2022/06/27 00:53:38;;;;;;;1.17;0.70;;;;;;;33.94;23.50;98223.56;5095848;28;20401;-75
2022/06/27 00:56:05;;;;;;;1.35;0.70;;;;;;;33.89;23.96;98226.31;5095615;28;20070;-76
2022/06/27 00:58:31;;;;;;;0.57;0.55;;;;;;;33.96;23.65;98220.19;5090520;28;20503;-76
2022/06/27 01:00:57;;;;;;;0.68;0.60;;;;;;;34.01;23.27;98219.50;5071194;28;20039;-76
2022/06/27 01:03:23;;;;;;;0.80;0.80;;;;;;;33.92;23.42;98211.88;5095382;28;20036;-75
2022/06/27 01:05:52;;;;;;;0.57;0.50;;;;;;;33.99;23.58;98214.31;5095429;28;20043;-76
2022/06/27 01:08:25;;;;;;;0.93;0.65;;;;;;;33.76;23.49;98220.22;5091721;28;20025;-75
2022/06/27 01:10:51;;;;;;;1.83;0.68;;;;;;;33.58;24.16;98220.47;5095561;28;20047;-76
2022/06/27 01:13:18;;;;;;;0.82;0.80;;;;;;;33.45;23.83;98223.63;5095130;28;20036;-76
2022/06/27 01:15:45;;;;;;;0.70;0.70;;;;;;;33.67;23.72;98226.03;5095191;28;20479;-75
2022/06/27 01:18:13;;;;;;;1.05;0.70;;;;;;;33.66;23.91;98228.09;5095373;28;20452;-75
2022/06/27 01:20:43;;;;;;;1.27;0.60;;;;;;;33.77;23.70;98225.41;5095059;28;20017;-76
2022/06/27 01:23:10;;;;;;;1.13;0.80;;;;;;;33.91;23.93;98227.41;5095469;28;20498;-76
2022/06/27 01:25:37;;;;;;;0.90;0.68;;;;;;;33.96;23.26;98231.59;5089441;28;20365;-75
2022/06/27 01:28:09;;;;;;;1.95;0.60;;;;;;;33.61;23.73;98228.03;5075027;28;20040;-75
2022/06/27 01:30:35;;;;;;;0.77;0.77;;;;;;;33.39;24.19;98232.09;5074507;28;20481;-75
2022/06/27 01:33:01;;;;;;;0.70;0.70;;;;;;;33.49;23.90;98224.22;5074780;28;20357;-76
2022/06/27 01:35:27;;;;;;;0.80;0.77;;;;;;;33.29;24.34;98229.84;5074860;28;20059;-75
2022/06/27 01:37:53;;;;;;;0.90;0.80;;;;;;;32.91;24.88;98225.03;5074545;28;20056;-75
2022/06/27 01:40:20;;;;;;;1.02;0.88;;;;;;;32.84;24.59;98216.91;5074545;28;20025;-75
2022/06/27 01:42:46;;;;;;;1.90;0.95;;;;;;;32.49;25.08;98213.13;5077162;28;20495;-76
2022/06/27 01:45:13;;;;;;;0.90;0.80;;;;;;;32.16;25.73;98218.97;5074388;28;20060;-75
2022/06/27 01:47:39;;;;;;;0.80;0.80;;;;;;;32.32;25.82;98215.69;5074397;28;20087;-75
2022/06/27 01:50:05;;;;;;;1.05;0.95;;;;;;;32.36;25.83;98210.59;5076807;28;20571;-75
2022/06/27 01:52:32;;;;;;;1.10;0.80;;;;;;;32.80;25.45;98221.22;5078819;28;20035;-75
2022/06/27 01:54:58;;;;;;;1.23;0.95;;;;;;;32.97;25.20;98219.47;5090284;28;20039;-76
2022/06/27 01:57:25;;;;;;;0.82;0.80;;;;;;;32.62;25.44;98220.16;5075579;28;20053;-76
2022/06/27 01:59:51;;;;;;;1.48;1.00;;;;;;;32.34;25.66;98212.34;5085767;28;20027;-75
2022/06/27 02:02:19;;;;;;;1.50;0.98;;;;;;;31.99;25.87;98212.97;5114688;28;20110;-76
2022/06/27 02:04:46;;;;;;;1.60;0.73;;;;;;;31.67;26.78;98216.63;5114658;28;20391;-75
2022/06/27 02:07:12;;;;;;;5.82;0.82;;;;;;;32.24;26.31;98205.16;5100236;28;20388;-75
2022/06/27 02:09:38;;;;;;;0.80;0.80;;;;;;;32.44;26.00;98205.31;5093903;28;20028;-75
2022/06/27 02:12:21;;;;;;;1.25;1.00;;;;;;;32.35;25.82;98213.94;5094435;28;20126;-76
2022/06/27 02:14:49;;;;;;;0.80;0.80;;;;;;;32.60;25.54;98214.16;5094089;28;20036;-75
2022/06/27 02:17:17;;;;;;;2.88;1.00;;;;;;;32.73;25.55;98216.72;5083411;28;20499;-75
2022/06/27 02:19:44;;;;;;;1.88;1.23;;;;;;;32.99;25.34;98212.00;5074116;28;20040;-75
2022/06/27 02:22:11;;;;;;;2.45;1.10;;;;;;;33.30;25.06;98226.50;5074248;28;20379;-74
2022/06/27 02:24:37;;;;;;;1.02;0.93;;;;;;;33.57;24.84;98218.91;5073578;28;20033;-75
2022/06/27 02:27:04;;;;;;;2.10;0.85;;;;;;;33.65;24.66;98218.00;5073892;28;20125;-75
2022/06/27 02:29:31;;;;;;;1.90;1.10;;;;;;;33.75;24.49;98212.97;5073494;28;20073;-75
2022/06/27 02:31:59;;;;;;;1.58;0.90;;;;;;;33.21;24.59;98214.47;5072714;28;20029;-75
2022/06/27 02:34:26;;;;;;;4.10;1.10;;;;;;;33.03;25.21;98211.81;5076138;28;20036;-75
2022/06/27 02:36:54;;;;;;;1.52;0.70;;;;;;;33.42;25.20;98213.25;5107378;28;20387;-75
2022/06/27 02:39:26;;;;;;;0.95;0.82;;;;;;;33.73;24.60;98209.78;5093434;28;20498;-75
2022/06/27 02:41:58;;;;;;;1.00;0.75;;;;;;;33.84;24.27;98216.44;5093720;28;20115;-75
2022/06/27 02:44:26;;;;;;;0.82;0.80;;;;;;;33.59;24.29;98213.47;5093715;28;20372;-75
2022/06/27 02:46:53;;;;;;;0.93;0.88;;;;;;;33.62;24.32;98215.34;5074224;28;20086;-75
2022/06/27 02:49:20;;;;;;;0.73;0.73;;;;;;;33.46;24.71;98216.66;5073276;28;20036;-75
2022/06/27 02:52:32;;;;;;;1.15;0.90;;;;;;;33.53;24.65;98215.47;5079590;28;20551;-75
2022/06/27 02:55:03;;;;;;;0.85;0.80;;;;;;;33.79;24.11;98217.16;5069555;28;20472;-75
2022/06/27 02:57:45;;;;;;;0.75;0.75;;;;;;;34.08;23.35;98219.88;5072992;28;20056;-76
2022/06/27 03:00:12;;;;;;;1.17;0.90;;;;;;;34.28;23.63;98210.53;5073263;28;20105;-75
2022/06/27 03:02:42;;;;;;;0.95;0.90;;;;;;;34.40;23.33;98215.06;5073156;28;20388;-75
2022/06/27 03:05:08;;;;;;;1.27;1.05;;;;;;;34.51;23.33;98220.09;5073061;28;20029;-75
2022/06/27 03:07:42;;;;;;;1.00;0.88;;;;;;;34.58;22.87;98231.09;5077401;28;20028;-75
2022/06/27 03:10:09;;;;;;;0.98;0.73;;;;;;;34.34;23.14;98228.47;5093280;28;20028;-75
2022/06/27 03:12:35;;;;;;;1.25;0.80;;;;;;;34.02;23.95;98227.56;5093265;28;20028;-75
2022/06/27 03:15:01;;;;;;;0.98;0.98;;;;;;;33.58;24.21;98226.16;5093178;28;20051;-75
2022/06/27 03:17:28;;;;;;;2.70;0.90;;;;;;;33.37;24.49;98228.16;5093195;28;20392;-75
2022/06/27 03:19:54;;;;;;;0.88;0.88;;;;;;;33.67;24.09;98223.97;5093385;28;20033;-75
2022/06/27 03:22:20;;;;;;;0.70;0.70;;;;;;;33.99;24.16;98228.56;5093002;28;20484;-75
2022/06/27 03:24:46;;;;;;;1.13;1.00;;;;;;;34.31;23.57;98220.16;5086438;28;20032;-75
2022/06/27 03:27:12;;;;;;;1.00;0.80;;;;;;;34.45;23.30;98220.03;5073372;28;20037;-75
2022/06/27 03:29:38;;;;;;;0.73;0.68;;;;;;;34.51;22.90;98226.59;5072810;28;20024;-75
2022/06/27 03:32:05;;;;;;;0.80;0.77;;;;;;;34.55;22.50;98227.19;5073024;28;20526;-75
2022/06/27 03:34:32;;;;;;;1.20;1.02;;;;;;;34.23;23.42;98228.34;5072728;28;20082;-75
2022/06/27 03:36:58;;;;;;;8.57;1.48;;;;;;;34.01;23.88;98225.97;5072579;28;20025;-75
2022/06/27 03:39:25;;;;;;;1.02;1.00;;;;;;;34.14;24.25;98222.81;5073048;28;20067;-75
2022/06/27 03:41:51;;;;;;;1.00;0.73;;;;;;;34.07;24.36;98232.56;5079918;28;20384;-75
2022/06/27 03:44:17;;;;;;;2.03;0.90;;;;;;;34.23;24.16;98242.63;5087513;28;20123;-75
2022/06/27 03:46:44;;;;;;;1.58;1.17;;;;;;;34.21;24.50;98236.63;5076714;28;20028;-75
2022/06/27 03:51:54;;;;;;;1.23;1.00;;;;;;;34.65;24.68;98245.72;5074912;28;20071;-75
2022/06/27 03:54:21;;;;;;;1.10;1.00;;;;;;;34.94;23.94;98244.66;5076731;28;20452;-75
2022/06/27 03:56:47;;;;;;;1.00;0.90;;;;;;;35.52;24.19;98243.41;5076372;28;20032;-76
2022/06/27 03:59:13;;;;;;;1.05;0.95;;;;;;;35.86;23.58;98244.38;5086478;28;20032;-75
2022/06/27 04:01:39;;;;;;;1.35;1.00;;;;;;;35.97;23.43;98250.94;5096944;28;20027;-75
2022/06/27 04:04:06;;;;;;;1.15;1.05;;;;;;;36.28;23.02;98247.19;5096822;28;20051;-75
2022/06/27 04:06:32;;;;;;;1.20;0.90;;;;;;;36.52;22.71;98243.91;5096257;28;20502;-75
2022/06/27 04:08:59;;;;;;;1.08;0.98;;;;;;;36.59;22.78;98243.41;5096390;28;20024;-75
2022/06/27 04:11:25;;;;;;;1.60;1.02;;;;;;;36.70;22.57;98252.03;5096314;28;20107;-75
2022/06/27 04:13:51;;;;;;;1.20;0.95;;;;;;;36.56;23.24;98250.94;5096390;28;20032;-76
2022/06/27 04:16:17;;;;;;;1.17;1.00;;;;;;;36.55;23.21;98249.38;5093040;28;20434;-75
2022/06/27 04:18:43;;;;;;;0.95;0.90;;;;;;;36.50;23.33;98258.72;5078156;28;20120;-76
2022/06/27 04:21:09;;;;;;;1.23;1.00;;;;;;;36.44;23.33;98249.31;5096067;28;20491;-76
2022/06/27 04:23:35;;;;;;;1.20;1.10;;;;;;;36.61;23.18;98258.78;5096190;28;20093;-76
2022/06/27 04:26:01;;;;;;;1.30;1.15;;;;;;;36.76;22.58;98254.91;5096299;28;20044;-76
2022/06/27 04:28:28;;;;;;;1.67;1.00;;;;;;;36.03;23.78;98265.28;5078228;28;20032;-75
2022/06/27 04:30:54;;;;;;;1.10;0.85;;;;;;;35.24;24.66;98268.84;5082945;28;20033;-76
2022/06/27 04:33:20;;;;;;;1.17;1.08;;;;;;;34.92;25.29;98270.09;5086416;28;20051;-76
2022/06/27 04:35:46;;;;;;;1.15;1.05;;;;;;;35.48;24.75;98276.28;5095797;28;20111;-76
2022/06/27 04:38:13;;;;;;;2.55;1.15;;;;;;;36.37;23.99;98274.78;5096019;28;20153;-75
2022/06/27 04:40:40;;;;;;;2.10;1.30;;;;;;;36.87;23.04;98264.28;5096233;28;20383;-76
2022/06/27 04:43:06;;;;;;;1.20;1.10;;;;;;;36.95;22.73;98268.22;5086521;28;20033;-76
2022/06/27 04:45:33;;;;;;;1.40;1.13;;;;;;;36.42;23.23;98262.56;5075683;28;20097;-76
2022/06/27 04:48:00;;;;;;;1.50;1.05;;;;;;;36.54;23.30;98265.00;5075820;28;20391;-75
2022/06/27 04:50:26;;;;;;;1.00;1.00;;;;;;;36.61;23.54;98263.72;5087182;28;20032;-76
2022/06/27 04:52:54;;;;;;;1.17;1.08;;;;;;;36.54;23.20;98269.94;5078213;28;20082;-76
2022/06/27 04:55:22;;;;;;;1.05;0.80;;;;;;;36.95;22.77;98267.44;5074569;28;20392;-75
2022/06/27 04:57:49;;;;;;;0.90;0.90;;;;;;;36.85;23.44;98272.63;5086245;28;20078;-76
2022/06/27 05:00:16;;;;;;;1.00;1.00;;;;;;;37.27;22.81;98272.41;5075449;28;20021;-75
2022/06/27 05:02:43;;;;;;;1.58;1.20;;;;;;;36.69;23.15;98267.63;5075244;28;20028;-76
2022/06/27 05:05:09;;;;;;;1.48;0.85;;;;;;;37.34;22.65;98265.38;5076984;28;20039;-76
2022/06/27 05:07:36;;;;;;;1.02;0.93;;;;;;;37.59;22.47;98270.09;5081567;28;20107;-75
2022/06/27 05:10:03;;;;;;;1.77;1.10;;;;;;;37.51;22.35;98276.88;5075116;28;20033;-76
2022/06/27 05:12:29;;;;;;;1.10;1.00;;;;;;;37.83;22.42;98278.91;5075290;28;20032;-75
2022/06/27 05:14:56;;;;;;;1.05;0.95;;;;;;;38.44;21.75;98281.59;5075021;28;20037;-76
2022/06/27 05:17:24;;;;;;;1.27;1.17;;;;;;;37.91;21.85;98284.91;5075012;28;20035;-76
2022/06/27 05:19:50;;;;;;;0.98;0.85;;;;;;;37.96;22.43;98284.88;5074644;28;20029;-76
2022/06/27 05:22:16;;;;;;;1.63;1.00;;;;;;;37.82;22.25;98285.16;5074849;28;20029;-76
2022/06/27 05:24:42;;;;;;;1.33;1.02;;;;;;;37.98;22.25;98281.47;5088511;28;20085;-76
2022/06/27 05:27:11;;;;;;;0.77;0.77;;;;;;;38.76;22.26;98286.94;5094900;28;20107;-75
2022/06/27 05:29:38;;;;;;;1.05;0.90;;;;;;;38.94;21.60;98277.69;5095085;28;20054;-76
2022/06/27 05:32:05;;;;;;;0.80;0.80;;;;;;;39.49;21.57;98285.91;5094839;28;20532;-76
2022/06/27 05:34:31;;;;;;;0.82;0.68;;;;;;;39.86;20.91;98288.22;5082782;28;20055;-76
2022/06/27 05:36:57;;;;;;;2.88;0.60;;;;;;;39.99;20.67;98286.22;5093377;28;20024;-76
2022/06/27 05:39:24;;;;;;;0.95;0.93;;;;;;;39.26;21.24;98288.19;5094770;28;20449;-76
2022/06/27 05:41:50;;;;;;;0.93;0.85;;;;;;;38.85;21.61;98292.38;5080361;28;20028;-76
2022/06/27 05:44:16;;;;;;;1.65;0.80;;;;;;;38.12;21.86;98297.59;5074483;28;20079;-76
2022/06/27 05:46:42;;;;;;;0.75;0.75;;;;;;;38.43;22.30;98299.34;5074123;28;20028;-76
2022/06/27 05:49:11;;;;;;;0.73;0.73;;;;;;;39.10;21.50;98299.78;5074237;28;20434;-76
2022/06/27 05:51:38;;;;;;;2.38;0.80;;;;;;;38.55;22.34;98300.88;5074262;28;20070;-76
2022/06/27 05:54:05;;;;;;;0.80;0.70;;;;;;;38.73;21.40;98300.28;5074155;28;20059;-76
2022/06/27 05:56:33;;;;;;;1.85;0.95;;;;;;;38.49;22.07;98300.88;5072696;28;20385;-76
2022/06/27 05:59:01;;;;;;;0.80;0.80;;;;;;;38.73;22.29;98303.16;5077045;28;20044;-76
2022/06/27 06:01:27;;;;;;;0.82;0.75;;;;;;;39.23;21.81;98297.88;5074790;28;20055;-76
2022/06/27 06:03:55;;;;;;;1.23;0.88;;;;;;;39.37;21.36;98311.09;5074405;28;20043;-76
2022/06/27 06:06:21;;;;;;;2.08;0.70;;;;;;;39.44;20.90;98304.00;5090697;28;20398;-76
2022/06/27 06:08:48;;;;;;;0.90;0.90;;;;;;;38.97;20.53;98302.50;5094057;28;20028;-76
2022/06/27 06:11:14;;;;;;;4.75;1.17;;;;;;;38.72;21.17;98308.09;5094124;28;20115;-76
2022/06/27 06:13:41;;;;;;;0.88;0.88;;;;;;;38.46;21.94;98315.53;5093560;28;20480;-76
2022/06/27 06:16:09;;;;;;;1.42;0.82;;;;;;;38.82;22.10;98314.31;5058413;28;20029;-76
2022/06/27 06:18:36;;;;;;;0.85;0.85;;;;;;;39.13;21.80;98305.25;5073939;28;20025;-76
2022/06/27 06:21:02;;;;;;;0.82;0.82;;;;;;;39.21;21.43;98311.25;5073688;28;20115;-76
2022/06/27 06:23:28;;;;;;;0.93;0.93;;;;;;;39.13;21.23;98311.00;5073492;28;20086;-76
2022/06/27 06:25:58;;;;;;;2.38;0.90;;;;;;;39.55;21.05;98312.50;5073528;28;20040;-76
2022/06/27 06:28:25;;;;;;;1.50;1.00;;;;;;;39.45;21.22;98319.91;5073585;28;20036;-76
2022/06/27 06:30:51;;;;;;;1.58;1.48;;;;;;;40.18;19.75;98323.72;5085198;28;20503;-76
2022/06/27 06:33:17;;;;;;;1.05;1.05;;;;;;;39.85;20.48;98324.81;5075126;28;20037;-76
2022/06/27 06:35:44;;;;;;;1.20;1.10;;;;;;;39.59;21.05;98320.88;5073571;28;20044;-76
2022/06/27 06:38:10;;;;;;;1.55;1.45;;;;;;;39.44;21.14;98320.47;5073313;28;20536;-76
2022/06/27 06:40:36;;;;;;;2.55;1.38;;;;;;;38.24;22.04;98318.44;5083763;28;20399;-76
2022/06/27 06:43:03;;;;;;;1.50;1.40;;;;;;;38.24;21.58;98324.16;5093580;28;20032;-76
2022/06/27 06:45:30;;;;;;;1.58;1.25;;;;;;;39.27;22.29;98314.84;5093255;28;20506;-76
2022/06/27 06:47:57;;;;;;;2.97;1.15;;;;;;;40.14;20.73;98326.13;5074898;28;20054;-76
2022/06/27 06:50:23;;;;;;;1.17;1.02;;;;;;;40.20;19.98;98323.16;5074164;28;20043;-76
2022/06/27 06:52:51;;;;;;;1.77;1.67;;;;;;;40.47;20.69;98313.47;5073205;28;20542;-76
2022/06/27 06:55:21;;;;;;;1.13;1.02;;;;;;;39.98;19.86;98319.16;5073456;28;20040;-76
2022/06/27 06:57:48;;;;;;;1.38;1.27;;;;;;;40.18;20.04;98311.41;5072974;28;20110;-76
2022/06/27 07:00:15;;;;;;;1.30;1.20;;;;;;;40.73;19.95;98310.75;5072892;28;20503;-76
2022/06/27 07:02:41;;;;;;;1.40;1.30;;;;;;;41.20;19.13;98320.56;5055907;28;20036;-76
2022/06/27 07:05:11;;;;;;;1.63;1.52;;;;;;;40.49;19.27;98320.25;5073806;28;20060;-76
2022/06/27 07:07:39;;;;;;;1.77;1.33;;;;;;;40.08;20.26;98321.72;5093552;28;20035;-76
2022/06/27 07:10:06;;;;;;;1.30;1.17;;;;;;;39.76;20.40;98307.13;5093223;28;20032;-76
2022/06/27 07:12:35;;;;;;;2.75;1.40;;;;;;;40.35;19.95;98314.88;5093257;28;20028;-76
2022/06/27 07:15:03;;;;;;;1.50;1.40;;;;;;;39.93;20.04;98311.38;5093032;28;20054;-76
2022/06/27 07:17:29;;;;;;;1.27;1.05;;;;;;;40.46;19.66;98311.88;5092814;28;20027;-76
2022/06/27 07:19:56;;;;;;;1.20;1.10;;;;;;;40.21;19.90;98298.84;5075021;28;20064;-76
2022/06/27 07:22:23;;;;;;;1.30;1.20;;;;;;;39.78;20.36;98310.22;5089570;28;20024;-76
2022/06/27 07:24:50;;;;;;;1.70;1.60;;;;;;;38.51;21.95;98311.84;5073061;28;20029;-76
2022/06/27 07:27:18;;;;;;;1.88;1.50;;;;;;;39.02;20.87;98313.16;5072756;28;20055;-76
2022/06/27 07:29:45;;;;;;;1.60;1.20;;;;;;;40.12;18.83;98311.47;5072757;28;20059;-76
2022/06/27 07:32:11;;;;;;;1.40;1.30;;;;;;;40.92;18.02;98320.19;5072988;28;20105;-76
2022/06/27 07:34:37;;;;;;;1.90;1.50;;;;;;;41.39;18.48;98309.03;5073016;28;20029;-76
2022/06/27 07:37:04;;;;;;;1.67;1.58;;;;;;;40.89;19.27;98315.50;5072919;28;20056;-76
2022/06/27 07:39:30;;;;;;;1.20;1.10;;;;;;;39.78;21.60;98311.03;5091956;28;20077;-76
2022/06/27 07:41:57;;;;;;;2.15;1.20;;;;;;;39.61;21.18;98310.38;5093250;28;20028;-76
2022/06/27 07:44:24;;;;;;;1.45;1.35;;;;;;;40.10;21.62;98310.47;5092868;28;20110;-76
2022/06/27 07:46:50;;;;;;;2.53;1.42;;;;;;;39.84;20.36;98317.47;5092620;28;20111;-76
2022/06/27 07:49:16;;;;;;;1.40;1.30;;;;;;;39.42;21.23;98318.09;5092783;28;20067;-76
2022/06/27 07:51:43;;;;;;;1.30;1.20;;;;;;;39.89;21.37;98313.00;5092752;28;20032;-76
2022/06/27 07:54:10;;;;;;;1.58;1.30;;;;;;;40.58;20.57;98316.19;5092960;28;20020;-76
2022/06/27 07:56:39;;;;;;;1.33;1.23;;;;;;;41.29;19.01;98311.53;5086362;28;20047;-76
2022/06/27 07:59:10;;;;;;;1.25;1.10;;;;;;;41.78;18.54;98302.59;5076271;28;20040;-76
2022/06/27 08:01:36;;;;;;;1.50;1.35;;;;;;;41.27;19.45;98307.63;5072509;28;20503;-76
2022/06/27 08:04:04;;;;;;;1.33;1.23;;;;;;;40.54;19.71;98307.84;5072648;28;20506;-76
2022/06/27 08:06:30;;;;;;;1.50;1.40;;;;;;;39.80;21.69;98311.25;5090560;28;20028;-76
2022/06/27 08:08:58;;;;;;;1.55;1.20;;;;;;;40.23;20.64;98314.25;5074587;28;20039;-77
2022/06/27 08:11:40;;;;;;;2.75;1.50;;;;;;;40.82;19.57;98312.47;5092552;28;20036;-76
2022/06/27 08:14:09;;;;;;;1.42;1.15;;;;;;;41.27;19.73;98317.06;5098172;28;20392;-76
2022/06/27 08:16:37;;;;;;;1.30;1.20;;;;;;;40.48;20.29;98312.91;5072482;28;20025;-77
2022/06/27 08:19:03;;;;;;;1.60;1.50;;;;;;;40.45;20.75;98313.97;5072527;28;20033;-76
2022/06/27 08:21:30;;;;;;;1.88;1.75;;;;;;;40.50;19.25;98309.47;5072236;28;20028;-76
2022/06/27 08:24:00;;;;;;;2.65;1.67;;;;;;;41.11;19.80;98312.31;5072574;28;20060;-76
2022/06/27 08:26:28;;;;;;;1.45;1.20;;;;;;;41.83;18.24;98301.72;5072422;28;20033;-76
2022/06/27 08:28:56;;;;;;;2.33;1.10;;;;;;;42.52;18.11;98301.47;5072504;28;20119;-76
2022/06/27 08:31:22;;;;;;;1.50;1.30;;;;;;;41.44;17.87;98308.16;5086330;28;20023;-77
2022/06/27 08:33:50;;;;;;;1.27;1.17;;;;;;;40.89;19.65;98309.75;5090171;28;20488;-77
2022/06/27 08:36:17;;;;;;;1.08;0.98;;;;;;;41.73;18.66;98309.28;5089038;28;20411;-76
2022/06/27 08:38:50;;;;;;;1.33;1.02;;;;;;;42.41;16.68;98310.34;5078895;28;20032;-77
2022/06/27 08:41:17;;;;;;;0.93;0.93;;;;;;;42.68;17.65;98311.88;5075454;28;20487;-76
2022/06/27 08:43:46;;;;;;;1.55;1.13;;;;;;;42.77;16.63;98310.63;5075566;28;20056;-76
2022/06/27 08:46:16;;;;;;;1.30;1.20;;;;;;;42.66;17.14;98314.56;5080987;28;20036;-76
2022/06/27 08:48:45;;;;;;;1.08;1.00;;;;;;;41.73;17.69;98315.78;5081333;28;20024;-76
2022/06/27 08:51:12;;;;;;;1.20;1.10;;;;;;;41.64;17.73;98315.44;5075623;28;20179;-76
2022/06/27 08:53:39;;;;;;;1.13;1.08;;;;;;;41.47;18.43;98309.94;5075408;28;20387;-76
2022/06/27 08:56:10;;;;;;;1.30;1.20;;;;;;;42.20;17.19;98309.47;5075052;28;20039;-76
2022/06/27 08:58:37;;;;;;;1.15;1.02;;;;;;;41.52;18.48;98314.81;5075308;28;20049;-76
2022/06/27 09:01:06;;;;;;;1.00;1.00;;;;;;;40.34;19.23;98307.56;5075326;28;20021;-76
2022/06/27 09:03:32;;;;;;;1.30;1.20;;;;;;;39.31;19.72;98310.34;5075235;28;20040;-76
2022/06/27 09:06:01;;;;;;;4.47;1.58;;;;;;;40.69;20.25;98316.81;5077913;28;20097;-76
2022/06/27 09:08:32;;;;;;;1.30;1.20;;;;;;;41.67;18.78;98308.53;5076155;28;20029;-76
2022/06/27 09:10:59;;;;;;;1.30;1.20;;;;;;;42.26;18.39;98307.22;5095608;28;20032;-76
2022/06/27 09:13:27;;;;;;;1.48;1.35;;;;;;;42.38;17.58;98306.47;5095570;28;20067;-76
2022/06/27 09:16:04;;;;;;;4.75;1.50;;;;;;;40.87;17.98;98306.66;5095364;28;20057;-77
2022/06/27 09:18:37;;;;;;;1.52;1.23;;;;;;;40.92;18.59;98300.03;5095313;28;20032;-76
2022/06/27 09:21:09;;;;;;;1.55;1.45;;;;;;;40.23;19.87;98296.97;5092076;28;20043;-77
2022/06/27 09:23:49;;;;;;;1.45;1.35;;;;;;;40.31;19.79;98300.78;5057473;28;20446;-77
2022/06/27 09:26:15;;;;;;;2.25;2.05;;;;;;;38.72;21.10;98307.31;5074550;28;20070;-77
2022/06/27 09:28:56;;;;;;;1.83;1.73;;;;;;;39.14;20.78;98300.28;5074895;28;20028;-76
2022/06/27 09:31:25;;;;;;;2.22;1.20;;;;;;;39.79;19.38;98294.56;5056519;28;20025;-76
2022/06/27 09:34:24;;;;;;;1.48;1.38;;;;;;;39.78;18.93;98296.66;5074632;28;20380;-77
2022/06/27 09:36:57;;;;;;;1.70;1.60;;;;;;;39.12;19.99;98282.78;5074561;28;20028;-76
2022/06/27 09:39:32;;;;;;;1.65;1.55;;;;;;;39.39;20.17;98281.81;5086044;28;20187;-76
2022/06/27 09:42:11;;;;;;;1.55;1.45;;;;;;;40.99;20.17;98289.97;5094891;28;20027;-77
2022/06/27 09:44:44;;;;;;;1.33;1.23;;;;;;;41.94;17.61;98284.97;5094551;28;20111;-77
2022/06/27 09:47:16;;;;;;;3.33;1.73;;;;;;;41.69;18.43;98291.50;5094917;28;20028;-77
2022/06/27 09:49:47;;;;;;;2.13;1.42;;;;;;;40.52;19.26;98287.47;5095041;28;20025;-77
2022/06/27 09:52:19;;;;;;;2.42;1.75;;;;;;;41.41;18.14;98289.06;5110354;28;20032;-76
2022/06/27 09:54:48;;;;;;;1.90;1.75;;;;;;;41.42;19.50;98284.88;5093605;28;20547;-77
2022/06/27 09:57:16;;;;;;;1.52;1.42;;;;;;;41.58;19.84;98283.78;5074391;28;20053;-77
2022/06/27 09:59:44;;;;;;;1.50;1.40;;;;;;;41.78;18.41;98288.19;5074464;28;20062;-77
2022/06/27 10:02:13;;;;;;;1.50;1.40;;;;;;;42.28;18.68;98288.03;5074372;28;20357;-77
2022/06/27 10:04:43;;;;;;;1.45;1.35;;;;;;;41.49;18.97;98280.56;5074097;28;20086;-77
2022/06/27 10:07:11;;;;;;;2.97;1.38;;;;;;;42.23;18.76;98276.56;5074079;28;20036;-77
2022/06/27 10:09:40;;;;;;;2.78;1.42;;;;;;;43.15;17.93;98268.53;5073885;28;20086;-77
2022/06/27 10:12:31;;;;;;;1.38;1.15;;;;;;;43.85;16.34;98278.88;5074751;28;20504;-77
2022/06/27 10:15:12;;;;;;;1.45;1.20;;;;;;;44.24;16.25;98268.31;5074470;28;20039;-77
2022/06/27 10:17:52;;;;;;;1.17;1.17;;;;;;;43.87;16.71;98278.28;5073876;28;20033;-77
2022/06/27 10:20:32;;;;;;;1.77;1.30;;;;;;;43.62;15.90;98272.06;5074042;28;20028;-77
2022/06/27 10:23:04;;;;;;;1.13;1.10;;;;;;;43.61;16.37;98276.31;5073587;28;20040;-77
2022/06/27 10:25:30;;;;;;;2.00;1.15;;;;;;;44.01;16.36;98271.06;5055748;28;20059;-77
2022/06/27 10:28:09;;;;;;;1.02;1.02;;;;;;;44.50;15.72;98268.88;5073552;28;20496;-77
2022/06/27 10:30:37;;;;;;;1.23;1.15;;;;;;;43.18;17.03;98268.16;5074076;28;20036;-77
2022/06/27 10:33:30;;;;;;;1.30;1.20;;;;;;;42.67;18.35;98262.00;5073416;28;20032;-77
2022/06/27 10:36:02;;;;;;;1.90;1.10;;;;;;;42.88;17.54;98267.03;5073237;28;20107;-77
2022/06/27 10:38:34;;;;;;;1.85;1.20;;;;;;;43.60;16.82;98253.75;5073284;28;20061;-77
2022/06/27 10:41:03;;;;;;;0.95;0.93;;;;;;;44.20;16.55;98250.53;5073890;28;20035;-76
2022/06/27 10:43:40;;;;;;;3.08;1.08;;;;;;;44.64;16.08;98260.81;5073529;28;20078;-77
2022/06/27 10:46:08;;;;;;;1.08;0.98;;;;;;;45.02;15.55;98255.19;5074277;28;20036;-77
2022/06/27 10:48:42;;;;;;;1.52;1.15;;;;;;;45.08;15.16;98249.97;5088931;28;20086;-77
2022/06/27 10:51:22;;;;;;;1.05;1.02;;;;;;;45.14;15.86;98259.28;5073455;28;20397;-77
2022/06/27 10:54:09;;;;;;;0.90;0.90;;;;;;;45.48;15.42;98259.72;5072784;28;20102;-77
2022/06/27 10:56:41;;;;;;;2.45;1.10;;;;;;;45.12;16.77;98245.34;5080427;28;20039;-77
2022/06/27 10:59:29;;;;;;;1.27;1.17;;;;;;;44.60;15.82;98243.06;5076989;28;20132;-77
2022/06/27 11:01:57;;;;;;;2.03;1.20;;;;;;;44.01;16.70;98238.44;5072036;28;20040;-77
2022/06/27 11:04:26;;;;;;;1.60;1.50;;;;;;;41.72;17.76;98242.16;5076090;28;20029;-78
2022/06/27 11:06:59;;;;;;;1.40;1.30;;;;;;;42.56;17.43;98233.38;5086489;28;20099;-77
2022/06/27 11:09:46;;;;;;;3.95;1.40;;;;;;;43.47;17.10;98222.78;5073331;28;20021;-77
2022/06/27 11:12:14;;;;;;;1.48;1.38;;;;;;;43.06;16.73;98219.88;5073398;28;20540;-77
2022/06/27 11:14:58;;;;;;;2.30;1.45;;;;;;;43.45;17.03;98224.69;5073256;28;20082;-77
2022/06/27 11:17:42;;;;;;;1.42;1.35;;;;;;;43.75;16.10;98222.84;5073070;28;20484;-77
2022/06/27 11:20:15;;;;;;;3.28;1.45;;;;;;;42.42;17.52;98219.47;5073855;28;20116;-78
2022/06/27 11:22:43;;;;;;;1.52;1.42;;;;;;;43.20;16.91;98215.59;5092927;28;20099;-77
2022/06/27 11:25:10;;;;;;;1.27;1.17;;;;;;;43.43;15.71;98216.59;5093143;28;20036;-77
2022/06/27 11:27:54;;;;;;;1.55;1.33;;;;;;;43.21;16.43;98220.00;5091262;28;20028;-77
2022/06/27 11:33:25;;;;;;;1.70;1.60;;;;;;;42.33;17.48;98217.06;5073888;28;20059;-77
2022/06/27 11:35:53;;;;;;;1.65;1.55;;;;;;;42.19;17.36;98207.66;5082224;28;20025;-77
2022/06/27 11:38:27;;;;;;;1.95;1.60;;;;;;;42.43;17.82;98216.03;5089564;28;20032;-77
2022/06/27 11:41:06;;;;;;;1.33;1.23;;;;;;;42.97;18.13;98215.34;5093302;28;20417;-77
2022/06/27 11:44:12;;;;;;;2.92;1.60;;;;;;;41.65;16.99;98211.03;5093499;28;20147;-77
2022/06/27 11:46:42;;;;;;;1.40;1.30;;;;;;;40.94;18.38;98221.72;5051217;28;20025;-77
2022/06/27 11:49:09;;;;;;;;;;;;;;;42.16;16.72;98205.88;5087287;28;20040;-77